Lord Nelson — GHJV — position and weather

sailwx.info

Track history (hours):
 
Tides and Currents Weather Stations Pressure Air Temp Water Temp Dewpoint Dewpoint Depression Visibility Wind Speed Wind Dir Waves Ship Positions

Lord Nelson (United Kingdom)

Ship's website: http://www.jst.org.uk/

Last reported at 2017-Nov-21 23:00 UTC. Time now 2017-Nov-22 20:11 UTC.
Position N 35°54' W 006°30'.

Length 54.7 m; beam 9 m; draft 4.1 m.

Type: Sailing vessel. MMSI: 232003690.

Wind from 090 at 10 knots

Barometer 1018.5 mb
Air temperature 17.8 ° C
Visibility: greater than 5.4 NM
Dewpoint 14.7 ° C

Date/timePositionNaut miles runAvg speedWind from/ knotsBaromVisibWave heightAir tempDewpointWater temp
2017-Nov-21 23:00N 35°54' W 006°30'16 3.9 090 / 101018.5 5.4 17.814.7
2017-Nov-21 19:00N 35°48' W 006°48'5 2.4 100 / 61018.4 5.4 18.714.019.0
2017-Nov-21 17:00N 35°48' W 006°54'29 5.8 120 / 21018.5 5.4 18.716.719.5
2017-Nov-21 12:00N 35°48' W 007°30'24 4.9 120 / 41019.610.8 21.617.620.5
2017-Nov-21 07:00N 35°48' W 008°00'15 7.3 080 / 131020.3 5.4 18.116.120.5
2017-Nov-21 05:00N 35°48' W 008°18'15 4.9 110 / 101019.8 5.4 18.916.4
2017-Nov-21 02:00N 35°48' W 008°36'15 4.9 090 / 51020.5 5.4 19.215.520.5
2017-Nov-20 23:00N 35°48' W 008°54'16 2.6 130 / 71020.910.8 19.516.420.0
2017-Nov-20 17:00N 35°54' W 009°12'52 5.2 260 / 81020.0 5.4 20.020.0
2017-Nov-20 07:00N 36°42' W 009°36'8 3.8 040 / 101021.0 5.4 17.414.119.0
2017-Nov-20 05:00N 36°48' W 009°42'13 6.5 050 / 71020.3 5.4 17.815.3
2017-Nov-20 03:00N 37°00' W 009°48'23 8.6 030 / 61020.9 5.4 17.514.8
2017-Nov-20 00:18N 37°23' W 009°49'2 7.1
2017-Nov-20 00:00N 37°25' W 009°49'4 7.6
2017-Nov-19 23:29N 37°29' W 009°49'4 7.4
2017-Nov-19 23:01N 37°33' W 009°49'3167.9
2017-Nov-19 23:00N 37°30' W 009°48'613.1 050 / 71021.310.8 17.514.017.9
2017-Nov-19 22:31N 37°36' W 009°49'4 7.1
2017-Nov-19 22:01N 37°40' W 009°49'4 7.4
2017-Nov-19 21:31N 37°43' W 009°49'4 7.8
2017-Nov-19 21:01N 37°47' W 009°48'4 7.9
2017-Nov-19 20:30N 37°51' W 009°50'4 7.7
2017-Nov-19 20:01N 37°55' W 009°51'4 7.6
2017-Nov-19 19:30N 37°59' W 009°52'4 7.8
2017-Nov-19 19:01N 38°02' W 009°53'5283.6
2017-Nov-19 19:00N 38°00' W 009°48'816.4 340 / 111020.8 5.4 17.314.217.6
2017-Nov-19 18:31N 38°06' W 009°55'4 7.5
2017-Nov-19 18:00N 38°10' W 009°56'4 7.7
2017-Nov-19 17:31N 38°13' W 009°57'4 7.8
2017-Nov-19 17:00N 38°17' W 009°58'6438.1
2017-Nov-19 17:00N 38°12' W 009°54'1020.6 350 / 61020.310.8 17.014.018.0
2017-Nov-19 16:30N 38°21' W 009°60'4 7.9
2017-Nov-19 16:00N 38°25' W 010°01'4 7.8
2017-Nov-19 15:31N 38°28' W 010°02'4 7.8
2017-Nov-19 15:00N 38°32' W 010°04'4 7.7
2017-Nov-19 14:31N 38°36' W 010°05'4 7.8
2017-Nov-19 14:01N 38°40' W 010°06'4 7.8
2017-Nov-19 13:31N 38°44' W 010°07'4 7.9
2017-Nov-19 13:01N 38°48' W 010°07'4 8.0
2017-Nov-19 12:31N 38°51' W 010°07'4 7.6
2017-Nov-19 12:01N 38°55' W 010°07'4 7.3
2017-Nov-19 11:31N 38°59' W 010°07'4 7.2
2017-Nov-19 11:01N 39°03' W 010°07'3158.1
2017-Nov-19 11:00N 39°00' W 010°06'613.2 040 / 71021.8 5.4 18.515.518.0
2017-Nov-19 10:30N 39°06' W 010°07'4 7.8
2017-Nov-19 10:01N 39°10' W 010°07'4 7.7
2017-Nov-19 09:31N 39°14' W 010°07'4 7.6
2017-Nov-19 09:01N 39°18' W 010°07'4 7.6
2017-Nov-19 08:31N 39°22' W 010°07'3 6.5
2017-Nov-19 08:00N 39°25' W 010°07'6 6.5
2017-Nov-19 07:06N 39°31' W 010°07'1 6.4
2017-Nov-19 07:00N 39°31' W 010°07'3 6.2
2017-Nov-19 06:28N 39°35' W 010°07'1 2.9
2017-Nov-19 06:00N 39°36' W 010°06'10 7.3 360 / 71019.9 5.4 15.912.317.5
2017-Nov-19 04:38N 39°46' W 010°07'1 6.5
2017-Nov-19 04:25N 39°47' W 010°07'3 6.7
2017-Nov-19 04:00N 39°50' W 010°07'3 6.3
2017-Nov-19 03:31N 39°53' W 010°07'5 6.2
2017-Nov-19 02:43N 39°58' W 010°05'2 6.0
2017-Nov-19 02:20N 40°00' W 010°04'2 6.0
2017-Nov-19 02:00N 40°02' W 010°03'3 6.0
2017-Nov-19 01:30N 40°05' W 010°02'4 6.1
2017-Nov-19 00:54N 40°08' W 010°00'3 7.3
2017-Nov-19 00:25N 40°08' W 009°56'3 7.3
2017-Nov-18 23:59N 40°08' W 009°52'4 7.3
2017-Nov-18 23:30N 40°08' W 009°47'4 7.3
2017-Nov-18 23:00N 40°08' W 009°42'2269.3
2017-Nov-18 23:00N 40°06' W 009°42'4 7.8 120 / 41020.3 0.0 14.014.0
2017-Nov-18 22:26N 40°09' W 009°38'3 6.6
2017-Nov-18 22:00N 40°11' W 009°35'3 6.5
2017-Nov-18 21:30N 40°13' W 009°32'11 6.7
2017-Nov-18 19:55N 40°23' W 009°27'3 6.7
2017-Nov-18 19:30N 40°26' W 009°26'3 7.0
2017-Nov-18 19:00N 40°29' W 009°24'5404.8
2017-Nov-18 19:00N 40°24' W 009°24'9 8.6 020 / 101020.2 2.2 14.212.6
2017-Nov-18 17:56N 40°32' W 009°18'3 6.0
2017-Nov-18 17:28N 40°35' W 009°17'32 6.1
2017-Nov-18 12:17N 41°01' W 008°53'2 6.0
2017-Nov-18 11:59N 41°02' W 008°52'3 6.0
2017-Nov-18 11:30N 41°04' W 008°49'3 6.1
2017-Nov-18 11:00N 41°07' W 008°47'3 6.2
2017-Nov-18 10:31N 41°09' W 008°44'3 5.5
2017-Nov-18 10:01N 41°11' W 008°42'0 0.2
2017-Nov-18 09:23N 41°11' W 008°42'0 0.0
2017-Nov-18 08:59N 41°11' W 008°42'0 0.0
2017-Nov-18 08:29N 41°11' W 008°42'0 0.0
2017-Nov-18 07:59N 41°11' W 008°42'0 0.0
2017-Nov-18 07:29N 41°11' W 008°42'0 0.0
2017-Nov-18 06:59N 41°11' W 008°42'0 0.0
2017-Nov-18 06:29N 41°11' W 008°42'0 0.0
2017-Nov-18 05:59N 41°11' W 008°42'0 0.0
2017-Nov-18 05:29N 41°11' W 008°42'0 0.0
2017-Nov-18 04:59N 41°11' W 008°42'0 0.0
2017-Nov-18 04:29N 41°11' W 008°42'0 0.0
2017-Nov-18 03:59N 41°11' W 008°42'0 0.0
2017-Nov-18 03:29N 41°11' W 008°42'0 0.0
2017-Nov-18 02:59N 41°11' W 008°42'0 0.0
2017-Nov-18 02:29N 41°11' W 008°42'0 0.0
2017-Nov-18 01:59N 41°11' W 008°42'0 0.0
2017-Nov-18 01:29N 41°11' W 008°42'0 0.0
2017-Nov-18 00:59N 41°11' W 008°42'0 0.0
2017-Nov-18 00:29N 41°11' W 008°42'0 0.0
2017-Nov-17 23:59N 41°11' W 008°42'0 0.0
2017-Nov-17 23:29N 41°11' W 008°42'0 0.0
2017-Nov-17 22:59N 41°11' W 008°42'0 0.0
2017-Nov-17 22:29N 41°11' W 008°42'0 0.0
2017-Nov-17 21:59N 41°11' W 008°42'0 0.0
2017-Nov-17 21:29N 41°11' W 008°42'0 0.0
2017-Nov-17 20:59N 41°11' W 008°42'0 0.0
2017-Nov-17 20:29N 41°11' W 008°42'0 0.0
2017-Nov-17 19:59N 41°11' W 008°42'0 0.0
2017-Nov-17 19:29N 41°11' W 008°42'0 0.0
2017-Nov-17 18:59N 41°11' W 008°42'0 0.0
2017-Nov-17 18:29N 41°11' W 008°42'0 0.0
2017-Nov-17 17:59N 41°11' W 008°42'0 0.0
2017-Nov-17 17:29N 41°11' W 008°42'0 0.0
2017-Nov-17 16:59N 41°11' W 008°42'0 0.0
2017-Nov-17 16:29N 41°11' W 008°42'0 0.0
2017-Nov-17 15:59N 41°11' W 008°42'0 0.0
2017-Nov-17 15:29N 41°11' W 008°42'0 0.0
2017-Nov-17 14:59N 41°11' W 008°42'0 0.0
2017-Nov-17 14:29N 41°11' W 008°42'0 0.0
2017-Nov-17 13:59N 41°11' W 008°42'0 0.0
2017-Nov-17 13:29N 41°11' W 008°42'0 0.0
2017-Nov-17 12:59N 41°11' W 008°42'0 0.0
2017-Nov-17 12:29N 41°11' W 008°42'0 0.0
2017-Nov-17 11:59N 41°11' W 008°42'0 0.0
2017-Nov-17 11:28N 41°11' W 008°42'0 0.0
2017-Nov-17 10:58N 41°11' W 008°42'0 0.0
2017-Nov-17 10:28N 41°11' W 008°42'0 0.0
2017-Nov-17 09:58N 41°11' W 008°42'0 0.0
2017-Nov-17 09:28N 41°11' W 008°42'0 0.0
2017-Nov-17 08:58N 41°11' W 008°42'0 0.0
2017-Nov-17 08:28N 41°11' W 008°42'0 0.0
2017-Nov-17 07:58N 41°11' W 008°42'0 0.0
2017-Nov-17 07:28N 41°11' W 008°42'0 0.0
2017-Nov-17 06:58N 41°11' W 008°42'0 0.0
2017-Nov-17 06:28N 41°11' W 008°42'0 0.0
2017-Nov-17 05:58N 41°11' W 008°42'0 0.0
2017-Nov-17 05:28N 41°11' W 008°42'0 0.0
2017-Nov-17 04:58N 41°11' W 008°42'0 0.0
2017-Nov-17 04:28N 41°11' W 008°42'0 0.0
2017-Nov-17 03:58N 41°11' W 008°42'0 0.0
2017-Nov-17 03:28N 41°11' W 008°42'0 0.0
2017-Nov-17 02:58N 41°11' W 008°42'0 0.0
2017-Nov-17 02:28N 41°11' W 008°42'0 0.0
2017-Nov-17 01:58N 41°11' W 008°42'0 0.0
2017-Nov-17 01:28N 41°11' W 008°42'0 0.0
2017-Nov-17 00:58N 41°11' W 008°42'0 0.0
2017-Nov-17 00:28N 41°11' W 008°42'0 0.0
2017-Nov-16 23:58N 41°11' W 008°42'0 0.0
2017-Nov-16 23:28N 41°11' W 008°42'0 0.0
2017-Nov-16 22:58N 41°11' W 008°42'0 0.0
2017-Nov-16 22:28N 41°11' W 008°42'0 0.0
2017-Nov-16 21:58N 41°11' W 008°42'0 0.0
2017-Nov-16 21:28N 41°11' W 008°42'0 0.0
2017-Nov-16 20:58N 41°11' W 008°42'0 0.0
2017-Nov-16 20:28N 41°11' W 008°42'0 0.0
2017-Nov-16 19:58N 41°11' W 008°42'0 0.0
2017-Nov-16 19:28N 41°11' W 008°42'0 0.0
2017-Nov-16 18:58N 41°11' W 008°42'0 0.0
2017-Nov-16 18:28N 41°11' W 008°42'0 0.0
2017-Nov-16 17:58N 41°11' W 008°42'0 0.0
2017-Nov-16 17:28N 41°11' W 008°42'0 0.0
2017-Nov-16 16:58N 41°11' W 008°42'0 0.0
2017-Nov-16 16:28N 41°11' W 008°42'0 0.0
2017-Nov-16 15:58N 41°11' W 008°42'0 0.0
2017-Nov-16 15:28N 41°11' W 008°42'0 0.0
2017-Nov-16 14:58N 41°11' W 008°42'0 0.0
2017-Nov-16 14:28N 41°11' W 008°42'0 0.0
2017-Nov-16 13:58N 41°11' W 008°42'0 0.0
2017-Nov-16 13:28N 41°11' W 008°42'0 0.0
2017-Nov-16 12:58N 41°11' W 008°42'0 0.0
2017-Nov-16 12:28N 41°11' W 008°42'0 0.0
2017-Nov-16 11:58N 41°11' W 008°42'0 0.1
2017-Nov-16 11:30N 41°11' W 008°42'2 3.5
2017-Nov-16 11:00N 41°10' W 008°44'3 6.2
2017-Nov-16 10:31N 41°12' W 008°47'4 7.2
2017-Nov-16 09:59N 41°16' W 008°49'46 5.8
2017-Nov-16 02:00N 41°54' W 009°24'20 6.7 330 / 71020.310.8 14.5 8.4
2017-Nov-15 23:00N 42°12' W 009°36'29 7.1 070 / 11020.010.8 15.0 9.215.7
2017-Nov-15 19:00N 42°30' W 010°06'55 6.8 310 / 81019.710.8 15.711.9
2017-Nov-15 11:00N 43°24' W 010°18'13 4.3 190 / 101020.210.8 16.012.416.5
2017-Nov-15 08:00N 43°36' W 010°12'11 3.5 130 / 71018.510.8 14.811.116.0
2017-Nov-15 05:00N 43°42' W 010°00'7 3.7 090 / 161018.210.8 14.611.4
2017-Nov-15 03:00N 43°48' W 009°54'30 7.4 100 / 211019.6 5.4 14.510.5
2017-Nov-14 23:00N 44°12' W 009°30'35 8.8 090 / 341020.9 5.4 14.910.6
2017-Nov-14 19:00N 44°36' W 008°54'85 7.1 100 / 261023.110.8 14.8 9.6
2017-Nov-14 07:00N 45°54' W 008°06'13 6.4 110 / 81027.710.8 12.7 5.916.0
2017-Nov-14 05:00N 46°06' W 008°00'13 6.3 100 / 11027.610.8 12.4 5.315.0
2017-Nov-14 03:00N 46°18' W 007°54'27 6.8 090 / 71028.710.8 12.4 5.3
2017-Nov-13 23:00N 46°42' W 007°36'32 8.1 060 / 31029.610.8
2017-Nov-13 19:00N 47°12' W 007°18'14 7.2 020 / 51030.210.8 11.6 5.1
2017-Nov-13 17:00N 47°24' W 007°06'39 6.6 030 / 31030.010.8 11.8 4.3
2017-Nov-13 11:00N 48°00' W 006°42'27 3.4 010 / 91030.710.8 12.2 4.814.0
2017-Nov-13 03:00N 48°24' W 006°24'20 4.9 020 / 131028.810.8 10.9 3.9
2017-Nov-12 23:00N 48°42' W 006°12'81 7.3 360 / 211027.710.8 11.0 4.3
2017-Nov-12 11:56N 49°52' W 005°10'13 6.7
2017-Nov-12 09:56N 50°04' W 005°01'4 7.6
2017-Nov-12 09:26N 50°07' W 005°05'0 0.1
2017-Nov-12 08:16N 50°07' W 005°05'0 0.0
2017-Nov-12 07:58N 50°07' W 005°05'0 0.0
2017-Nov-12 07:16N 50°07' W 005°04'0 0.0
2017-Nov-12 06:46N 50°07' W 005°04'0 0.0
2017-Nov-12 06:13N 50°07' W 005°05'0 0.0
2017-Nov-12 05:58N 50°07' W 005°05'0 0.0
2017-Nov-12 04:55N 50°07' W 005°05'0 0.0
2017-Nov-12 04:25N 50°07' W 005°04'0 0.1
2017-Nov-12 03:58N 50°07' W 005°04'0 0.0
2017-Nov-12 03:19N 50°07' W 005°04'0 0.0
2017-Nov-12 02:58N 50°07' W 005°04'0 0.0
2017-Nov-12 02:31N 50°07' W 005°04'0 0.0
2017-Nov-12 01:54N 50°07' W 005°04'0 0.0
2017-Nov-12 01:30N 50°07' W 005°04'0 0.0
2017-Nov-12 00:57N 50°07' W 005°04'0 0.0
2017-Nov-12 00:30N 50°07' W 005°04'0 0.0
2017-Nov-11 23:57N 50°07' W 005°04'0 0.0
2017-Nov-11 23:21N 50°07' W 005°04'  
Track history (hours):
 
Tides and Currents Weather Stations Pressure Air Temp Water Temp Dewpoint Dewpoint Depression Visibility Wind Speed Wind Dir Waves Ship Positions

Lord Nelson (United Kingdom)

Ship's website: http://www.jst.org.uk/

Last reported at 2017-Nov-21 23:00 UTC. Time now 2017-Nov-22 20:11 UTC.
Position N 35°54' W 006°30'.

Length 54.7 m; beam 9 m; draft 4.1 m.

Type: Sailing vessel. MMSI: 232003690.

Wind from 090 at 10 knots

Barometer 1018.5 mb
Air temperature 17.8 ° C
Visibility: greater than 5.4 NM
Dewpoint 14.7 ° C

Date/timePositionNaut miles runAvg speedWind from/ knotsBaromVisibWave heightAir tempDewpointWater temp
2017-Nov-21 23:00N 35°54' W 006°30'16 3.9 090 / 101018.5 5.4 17.814.7
2017-Nov-21 19:00N 35°48' W 006°48'5 2.4 100 / 61018.4 5.4 18.714.019.0
2017-Nov-21 17:00N 35°48' W 006°54'29 5.8 120 / 21018.5 5.4 18.716.719.5
2017-Nov-21 12:00N 35°48' W 007°30'24 4.9 120 / 41019.610.8 21.617.620.5
2017-Nov-21 07:00N 35°48' W 008°00'15 7.3 080 / 131020.3 5.4 18.116.120.5
2017-Nov-21 05:00N 35°48' W 008°18'15 4.9 110 / 101019.8 5.4 18.916.4
2017-Nov-21 02:00N 35°48' W 008°36'15 4.9 090 / 51020.5 5.4 19.215.520.5
2017-Nov-20 23:00N 35°48' W 008°54'16 2.6 130 / 71020.910.8 19.516.420.0
2017-Nov-20 17:00N 35°54' W 009°12'52 5.2 260 / 81020.0 5.4 20.020.0
2017-Nov-20 07:00N 36°42' W 009°36'8 3.8 040 / 101021.0 5.4 17.414.119.0
2017-Nov-20 05:00N 36°48' W 009°42'13 6.5 050 / 71020.3 5.4 17.815.3
2017-Nov-20 03:00N 37°00' W 009°48'23 8.6 030 / 61020.9 5.4 17.514.8
2017-Nov-20 00:18N 37°23' W 009°49'2 7.1
2017-Nov-20 00:00N 37°25' W 009°49'4 7.6
2017-Nov-19 23:29N 37°29' W 009°49'4 7.4
2017-Nov-19 23:01N 37°33' W 009°49'3167.9
2017-Nov-19 23:00N 37°30' W 009°48'613.1 050 / 71021.310.8 17.514.017.9
2017-Nov-19 22:31N 37°36' W 009°49'4 7.1
2017-Nov-19 22:01N 37°40' W 009°49'4 7.4
2017-Nov-19 21:31N 37°43' W 009°49'4 7.8
2017-Nov-19 21:01N 37°47' W 009°48'4 7.9
2017-Nov-19 20:30N 37°51' W 009°50'4 7.7
2017-Nov-19 20:01N 37°55' W 009°51'4 7.6
2017-Nov-19 19:30N 37°59' W 009°52'4 7.8
2017-Nov-19 19:01N 38°02' W 009°53'5283.6
2017-Nov-19 19:00N 38°00' W 009°48'816.4 340 / 111020.8 5.4 17.314.217.6
2017-Nov-19 18:31N 38°06' W 009°55'4 7.5
2017-Nov-19 18:00N 38°10' W 009°56'4 7.7
2017-Nov-19 17:31N 38°13' W 009°57'4 7.8
2017-Nov-19 17:00N 38°17' W 009°58'6438.1
2017-Nov-19 17:00N 38°12' W 009°54'1020.6 350 / 61020.310.8 17.014.018.0
2017-Nov-19 16:30N 38°21' W 009°60'4 7.9
2017-Nov-19 16:00N 38°25' W 010°01'4 7.8
2017-Nov-19 15:31N 38°28' W 010°02'4 7.8
2017-Nov-19 15:00N 38°32' W 010°04'4 7.7
2017-Nov-19 14:31N 38°36' W 010°05'4 7.8
2017-Nov-19 14:01N 38°40' W 010°06'4 7.8
2017-Nov-19 13:31N 38°44' W 010°07'4 7.9
2017-Nov-19 13:01N 38°48' W 010°07'4 8.0
2017-Nov-19 12:31N 38°51' W 010°07'4 7.6
2017-Nov-19 12:01N 38°55' W 010°07'4 7.3
2017-Nov-19 11:31N 38°59' W 010°07'4 7.2
2017-Nov-19 11:01N 39°03' W 010°07'3158.1
2017-Nov-19 11:00N 39°00' W 010°06'613.2 040 / 71021.8 5.4 18.515.518.0
2017-Nov-19 10:30N 39°06' W 010°07'4 7.8
2017-Nov-19 10:01N 39°10' W 010°07'4 7.7
2017-Nov-19 09:31N 39°14' W 010°07'4 7.6
2017-Nov-19 09:01N 39°18' W 010°07'4 7.6
2017-Nov-19 08:31N 39°22' W 010°07'3 6.5
2017-Nov-19 08:00N 39°25' W 010°07'6 6.5
2017-Nov-19 07:06N 39°31' W 010°07'1 6.4
2017-Nov-19 07:00N 39°31' W 010°07'3 6.2
2017-Nov-19 06:28N 39°35' W 010°07'1 2.9
2017-Nov-19 06:00N 39°36' W 010°06'10 7.3 360 / 71019.9 5.4 15.912.317.5
2017-Nov-19 04:38N 39°46' W 010°07'1 6.5
2017-Nov-19 04:25N 39°47' W 010°07'3 6.7
2017-Nov-19 04:00N 39°50' W 010°07'3 6.3
2017-Nov-19 03:31N 39°53' W 010°07'5 6.2
2017-Nov-19 02:43N 39°58' W 010°05'2 6.0
2017-Nov-19 02:20N 40°00' W 010°04'2 6.0
2017-Nov-19 02:00N 40°02' W 010°03'3 6.0
2017-Nov-19 01:30N 40°05' W 010°02'4 6.1
2017-Nov-19 00:54N 40°08' W 010°00'3 7.3
2017-Nov-19 00:25N 40°08' W 009°56'3 7.3
2017-Nov-18 23:59N 40°08' W 009°52'4 7.3
2017-Nov-18 23:30N 40°08' W 009°47'4 7.3
2017-Nov-18 23:00N 40°08' W 009°42'2269.3
2017-Nov-18 23:00N 40°06' W 009°42'4 7.8 120 / 41020.3 0.0 14.014.0
2017-Nov-18 22:26N 40°09' W 009°38'3 6.6
2017-Nov-18 22:00N 40°11' W 009°35'3 6.5
2017-Nov-18 21:30N 40°13' W 009°32'11 6.7
2017-Nov-18 19:55N 40°23' W 009°27'3 6.7
2017-Nov-18 19:30N 40°26' W 009°26'3 7.0
2017-Nov-18 19:00N 40°29' W 009°24'5404.8
2017-Nov-18 19:00N 40°24' W 009°24'9 8.6 020 / 101020.2 2.2 14.212.6
2017-Nov-18 17:56N 40°32' W 009°18'3 6.0
2017-Nov-18 17:28N 40°35' W 009°17'32 6.1
2017-Nov-18 12:17N 41°01' W 008°53'2 6.0
2017-Nov-18 11:59N 41°02' W 008°52'3 6.0
2017-Nov-18 11:30N 41°04' W 008°49'3 6.1
2017-Nov-18 11:00N 41°07' W 008°47'3 6.2
2017-Nov-18 10:31N 41°09' W 008°44'3 5.5
2017-Nov-18 10:01N 41°11' W 008°42'0 0.2
2017-Nov-18 09:23N 41°11' W 008°42'0 0.0
2017-Nov-18 08:59N 41°11' W 008°42'0 0.0
2017-Nov-18 08:29N 41°11' W 008°42'0 0.0
2017-Nov-18 07:59N 41°11' W 008°42'0 0.0
2017-Nov-18 07:29N 41°11' W 008°42'0 0.0
2017-Nov-18 06:59N 41°11' W 008°42'0 0.0
2017-Nov-18 06:29N 41°11' W 008°42'0 0.0
2017-Nov-18 05:59N 41°11' W 008°42'0 0.0
2017-Nov-18 05:29N 41°11' W 008°42'0 0.0
2017-Nov-18 04:59N 41°11' W 008°42'0 0.0
2017-Nov-18 04:29N 41°11' W 008°42'0 0.0
2017-Nov-18 03:59N 41°11' W 008°42'0 0.0
2017-Nov-18 03:29N 41°11' W 008°42'0 0.0
2017-Nov-18 02:59N 41°11' W 008°42'0 0.0
2017-Nov-18 02:29N 41°11' W 008°42'0 0.0
2017-Nov-18 01:59N 41°11' W 008°42'0 0.0
2017-Nov-18 01:29N 41°11' W 008°42'0 0.0
2017-Nov-18 00:59N 41°11' W 008°42'0 0.0
2017-Nov-18 00:29N 41°11' W 008°42'0 0.0
2017-Nov-17 23:59N 41°11' W 008°42'0 0.0
2017-Nov-17 23:29N 41°11' W 008°42'0 0.0
2017-Nov-17 22:59N 41°11' W 008°42'0 0.0
2017-Nov-17 22:29N 41°11' W 008°42'0 0.0
2017-Nov-17 21:59N 41°11' W 008°42'0 0.0
2017-Nov-17 21:29N 41°11' W 008°42'0 0.0
2017-Nov-17 20:59N 41°11' W 008°42'0 0.0
2017-Nov-17 20:29N 41°11' W 008°42'0 0.0
2017-Nov-17 19:59N 41°11' W 008°42'0 0.0
2017-Nov-17 19:29N 41°11' W 008°42'0 0.0
2017-Nov-17 18:59N 41°11' W 008°42'0 0.0
2017-Nov-17 18:29N 41°11' W 008°42'0 0.0
2017-Nov-17 17:59N 41°11' W 008°42'0 0.0
2017-Nov-17 17:29N 41°11' W 008°42'0 0.0
2017-Nov-17 16:59N 41°11' W 008°42'0 0.0
2017-Nov-17 16:29N 41°11' W 008°42'0 0.0
2017-Nov-17 15:59N 41°11' W 008°42'0 0.0
2017-Nov-17 15:29N 41°11' W 008°42'0 0.0
2017-Nov-17 14:59N 41°11' W 008°42'0 0.0
2017-Nov-17 14:29N 41°11' W 008°42'0 0.0
2017-Nov-17 13:59N 41°11' W 008°42'0 0.0
2017-Nov-17 13:29N 41°11' W 008°42'0 0.0
2017-Nov-17 12:59N 41°11' W 008°42'0 0.0
2017-Nov-17 12:29N 41°11' W 008°42'0 0.0
2017-Nov-17 11:59N 41°11' W 008°42'0 0.0
2017-Nov-17 11:28N 41°11' W 008°42'0 0.0
2017-Nov-17 10:58N 41°11' W 008°42'0 0.0
2017-Nov-17 10:28N 41°11' W 008°42'0 0.0
2017-Nov-17 09:58N 41°11' W 008°42'0 0.0
2017-Nov-17 09:28N 41°11' W 008°42'0 0.0
2017-Nov-17 08:58N 41°11' W 008°42'0 0.0
2017-Nov-17 08:28N 41°11' W 008°42'0 0.0
2017-Nov-17 07:58N 41°11' W 008°42'0 0.0
2017-Nov-17 07:28N 41°11' W 008°42'0 0.0
2017-Nov-17 06:58N 41°11' W 008°42'0 0.0
2017-Nov-17 06:28N 41°11' W 008°42'0 0.0
2017-Nov-17 05:58N 41°11' W 008°42'0 0.0
2017-Nov-17 05:28N 41°11' W 008°42'0 0.0
2017-Nov-17 04:58N 41°11' W 008°42'0 0.0
2017-Nov-17 04:28N 41°11' W 008°42'0 0.0
2017-Nov-17 03:58N 41°11' W 008°42'0 0.0
2017-Nov-17 03:28N 41°11' W 008°42'0 0.0
2017-Nov-17 02:58N 41°11' W 008°42'0 0.0
2017-Nov-17 02:28N 41°11' W 008°42'0 0.0
2017-Nov-17 01:58N 41°11' W 008°42'0 0.0
2017-Nov-17 01:28N 41°11' W 008°42'0 0.0
2017-Nov-17 00:58N 41°11' W 008°42'0 0.0
2017-Nov-17 00:28N 41°11' W 008°42'0 0.0
2017-Nov-16 23:58N 41°11' W 008°42'0 0.0
2017-Nov-16 23:28N 41°11' W 008°42'0 0.0
2017-Nov-16 22:58N 41°11' W 008°42'0 0.0
2017-Nov-16 22:28N 41°11' W 008°42'0 0.0
2017-Nov-16 21:58N 41°11' W 008°42'0 0.0
2017-Nov-16 21:28N 41°11' W 008°42'0 0.0
2017-Nov-16 20:58N 41°11' W 008°42'0 0.0
2017-Nov-16 20:28N 41°11' W 008°42'0 0.0
2017-Nov-16 19:58N 41°11' W 008°42'0 0.0
2017-Nov-16 19:28N 41°11' W 008°42'0 0.0
2017-Nov-16 18:58N 41°11' W 008°42'0 0.0
2017-Nov-16 18:28N 41°11' W 008°42'0 0.0
2017-Nov-16 17:58N 41°11' W 008°42'0 0.0
2017-Nov-16 17:28N 41°11' W 008°42'0 0.0
2017-Nov-16 16:58N 41°11' W 008°42'0 0.0
2017-Nov-16 16:28N 41°11' W 008°42'0 0.0
2017-Nov-16 15:58N 41°11' W 008°42'0 0.0
2017-Nov-16 15:28N 41°11' W 008°42'0 0.0
2017-Nov-16 14:58N 41°11' W 008°42'0 0.0
2017-Nov-16 14:28N 41°11' W 008°42'0 0.0
2017-Nov-16 13:58N 41°11' W 008°42'0 0.0
2017-Nov-16 13:28N 41°11' W 008°42'0 0.0
2017-Nov-16 12:58N 41°11' W 008°42'0 0.0
2017-Nov-16 12:28N 41°11' W 008°42'0 0.0
2017-Nov-16 11:58N 41°11' W 008°42'0 0.1
2017-Nov-16 11:30N 41°11' W 008°42'2 3.5
2017-Nov-16 11:00N 41°10' W 008°44'3 6.2
2017-Nov-16 10:31N 41°12' W 008°47'4 7.2
2017-Nov-16 09:59N 41°16' W 008°49'46 5.8
2017-Nov-16 02:00N 41°54' W 009°24'20 6.7 330 / 71020.310.8 14.5 8.4
2017-Nov-15 23:00N 42°12' W 009°36'29 7.1 070 / 11020.010.8 15.0 9.215.7
2017-Nov-15 19:00N 42°30' W 010°06'55 6.8 310 / 81019.710.8 15.711.9
2017-Nov-15 11:00N 43°24' W 010°18'13 4.3 190 / 101020.210.8 16.012.416.5
2017-Nov-15 08:00N 43°36' W 010°12'11 3.5 130 / 71018.510.8 14.811.116.0
2017-Nov-15 05:00N 43°42' W 010°00'7 3.7 090 / 161018.210.8 14.611.4
2017-Nov-15 03:00N 43°48' W 009°54'30 7.4 100 / 211019.6 5.4 14.510.5
2017-Nov-14 23:00N 44°12' W 009°30'35 8.8 090 / 341020.9 5.4 14.910.6
2017-Nov-14 19:00N 44°36' W 008°54'85 7.1 100 / 261023.110.8 14.8 9.6
2017-Nov-14 07:00N 45°54' W 008°06'13 6.4 110 / 81027.710.8 12.7 5.916.0
2017-Nov-14 05:00N 46°06' W 008°00'13 6.3 100 / 11027.610.8 12.4 5.315.0
2017-Nov-14 03:00N 46°18' W 007°54'27 6.8 090 / 71028.710.8 12.4 5.3
2017-Nov-13 23:00N 46°42' W 007°36'32 8.1 060 / 31029.610.8
2017-Nov-13 19:00N 47°12' W 007°18'14 7.2 020 / 51030.210.8 11.6 5.1
2017-Nov-13 17:00N 47°24' W 007°06'39 6.6 030 / 31030.010.8 11.8 4.3
2017-Nov-13 11:00N 48°00' W 006°42'27 3.4 010 / 91030.710.8 12.2 4.814.0
2017-Nov-13 03:00N 48°24' W 006°24'20 4.9 020 / 131028.810.8 10.9 3.9
2017-Nov-12 23:00N 48°42' W 006°12'81 7.3 360 / 211027.710.8 11.0 4.3
2017-Nov-12 11:56N 49°52' W 005°10'13 6.7
2017-Nov-12 09:56N 50°04' W 005°01'4 7.6
2017-Nov-12 09:26N 50°07' W 005°05'0 0.1
2017-Nov-12 08:16N 50°07' W 005°05'0 0.0
2017-Nov-12 07:58N 50°07' W 005°05'0 0.0
2017-Nov-12 07:16N 50°07' W 005°04'0 0.0
2017-Nov-12 06:46N 50°07' W 005°04'0 0.0
2017-Nov-12 06:13N 50°07' W 005°05'0 0.0
2017-Nov-12 05:58N 50°07' W 005°05'0 0.0
2017-Nov-12 04:55N 50°07' W 005°05'0 0.0
2017-Nov-12 04:25N 50°07' W 005°04'0 0.1
2017-Nov-12 03:58N 50°07' W 005°04'0 0.0
2017-Nov-12 03:19N 50°07' W 005°04'0 0.0
2017-Nov-12 02:58N 50°07' W 005°04'0 0.0
2017-Nov-12 02:31N 50°07' W 005°04'0 0.0
2017-Nov-12 01:54N 50°07' W 005°04'0 0.0
2017-Nov-12 01:30N 50°07' W 005°04'0 0.0
2017-Nov-12 00:57N 50°07' W 005°04'0 0.0
2017-Nov-12 00:30N 50°07' W 005°04'0 0.0
2017-Nov-11 23:57N 50°07' W 005°04'0 0.0
2017-Nov-11 23:21N 50°07' W 005°04'  

Dump ship's entire track history